Durant, OK (74701)

1:25 PM CDT on August 30, 2015 (GMT -0500)
Ridgemont Estate | | Change Station
CLOSE
Current Station
Personal Weather Station
Location: Durant, OK
Elevation: 689 ft
Nearby Weather Stations

Elev 689 ft 34.02 °N, 96.40 °W | Updated 2 minutes ago

Mostly Cloudy
Mostly Cloudy
93.2 °F
Feels Like 93 °F
N
5.8
Wind Variable Wind from SSW

Today
High -- | Low -- °F
--% Chance of Precip.
Yesterday
High -- | Low -- °F
Precip. -- in
6:57 AM 7:54 PM
Full, 99% visible
Pressure 29.98 in
Visibility 10.0 miles
Clouds Scattered Clouds 10000 ft
Scattered Clouds 12000 ft
Heat Index 93 °F
Dew Point 59 °F
Humidity 32%
Rainfall 0.00 in
Snow Depth Not available.
UV 8 out of 12
Pollen 8.70 out of 12
Air Quality Not available.
Flu Activity Not available.
METAR KDUA 301815Z AUTO 23009KT 10SM SCT100 SCT120 32/15 A2998 RMK AO2
Pressure 29.98 in
Visibility 10.0 miles
Clouds Scattered Clouds 10000 ft
Scattered Clouds 12000 ft
Heat Index 93 °F
Dew Point 59 °F
Humidity 32%
Rainfall 0.00 in
Snow Depth Not available.
UV 8 out of 12
Pollen 8.70 out of 12
Air Quality Not available.
Flu Activity Not available.
METAR KDUA 301815Z AUTO 23009KT 10SM SCT100 SCT120 32/15 A2998 RMK AO2

10-Day Weather Forecast

×

Almanac

Astronomy

Aug. 30, 2015 Rise Set
Actual Time
Civil Twilight
Nautical Twilight
Astronomical Twilight
Moon
Length of Visible Light
Length of Day
Tomorrow will be .
, % of the Moon is Illuminated

Today's Extremes

State Highs State Lows

Community

WunderPhotos

Upload Photos

1,851,029 photos uploaded!

WunderBlogs® & News

Nearby

Air Quality

  Air Quality AQ Index Pollutant
Not available.

Snow Depth

Station Depth Elevation

Earthquake Activity

City Distance Mag. Time & Date
Minimum magnitude displayed is 2.5.

Coastal Water Temperatures

Place Temperature

Stations

Nearby Weather Stations

Station Location Temp. Windchill Dew Point Humidity Wind Precip. Elev Updated Type